Ulysses, Kentucky
Current Conditions -  °F | °C
As of 7:35 PM on Monday 22 Dec 2014 (Local Time) from KSJS Reporting Station
Overcast Overcast  
Wind Chill: 51°   Ceiling: 8500
Heat Index: 51°   Visibility: 10mi
Dew Point: 41°   Wind: 3mph
Humidity: 67%   Direction: 130°SE
Pressure: 29.85"   Gusts: NA
Location:  37.95°N, 82.67°W
Report Text: KSJS 230035Z AUTO 13003KT 10SM OVC085 11/05 A2985 RMK AO2 T01070049
Loading
Personal Weather Stations






























Interactive Weather Map New forecast layout! Learn more

10-Day Weather Forecast

Advertisements
Track Severe Weather on mobile